Pine Level, Alabama
Current Conditions -  °F | °C
As of 6:53 PM on Saturday 25 Oct 2014 (Local Time) from KTOI Reporting Station
Clear Clear  
Wind Chill: 62°   Ceiling: Unl
Heat Index: 62°   Visibility: 10mi
Dew Point: 51°   Wind: 0mph
Humidity: 67%   Direction: NA
Pressure: 30.05"   Gusts: NA
Location:  32.07°N, 86.06°W
Report Text: KTOI 252353Z AUTO 00000KT 10SM CLR 17/11 A3005 RMK AO2 SLP174 T01670106 10261 20167 53005
Loading
Personal Weather Stations






























Interactive Weather Map New forecast layout! Learn more

10-Day Weather Forecast

Advertisements
Track Severe Weather on mobile